createdAt,value
2018-11-21T00:04:02.102Z,20.63
2018-11-21T00:08:05.870Z,24.13
2018-11-21T00:12:09.502Z,20.10
2018-11-21T00:16:13.029Z,19.60
2018-11-21T00:20:16.737Z,18.87
2018-11-21T00:24:20.481Z,20.77
2018-11-21T00:28:24.303Z,20.83
2018-11-21T00:32:28.797Z,18.43
2018-11-21T00:36:32.570Z,23.33
2018-11-21T00:40:36.213Z,19.80
2018-11-21T00:44:39.845Z,23.93
2018-11-21T00:48:43.484Z,21.67
2018-11-21T00:52:47.123Z,19.97
2018-11-21T00:56:50.703Z,19.03
2018-11-21T01:00:54.329Z,18.13
2018-11-21T01:04:57.961Z,18.00
2018-11-21T01:09:01.668Z,24.17
2018-11-21T01:13:05.419Z,26.23
2018-11-21T01:17:09.022Z,26.17
2018-11-21T01:21:12.959Z,24.70
2018-11-21T01:25:16.685Z,25.70
2018-11-21T01:29:20.636Z,27.73
2018-11-21T01:33:24.388Z,25.17
2018-11-21T01:37:28.053Z,24.27
2018-11-21T01:41:31.918Z,31.00
2018-11-21T01:45:35.713Z,21.17
2018-11-21T01:49:39.655Z,25.70
2018-11-21T01:53:43.271Z,27.23
2018-11-21T01:57:46.884Z,28.07
2018-11-21T02:01:50.514Z,29.50
2018-11-21T02:05:54.110Z,21.33
2018-11-21T02:09:57.750Z,27.37
2018-11-21T02:14:01.338Z,25.77
2018-11-21T02:18:05.208Z,23.50
2018-11-21T02:22:08.974Z,25.30
2018-11-21T02:26:12.674Z,24.33
2018-11-21T02:30:16.318Z,25.37
2018-11-21T02:34:19.978Z,26.93
2018-11-21T02:38:23.571Z,28.17
2018-11-21T02:42:27.222Z,26.13
2018-11-21T02:46:30.836Z,27.60
2018-11-21T02:50:34.456Z,26.70
2018-11-21T02:54:38.056Z,29.37
2018-11-21T02:58:41.756Z,28.63
2018-11-21T03:02:45.411Z,31.47
2018-11-21T03:06:49.131Z,28.53
2018-11-21T03:10:52.776Z,29.43
2018-11-21T03:14:56.395Z,25.57
2018-11-21T03:19:00.854Z,24.97
2018-11-21T03:23:04.488Z,27.23
2018-11-21T03:27:08.161Z,26.80
2018-11-21T03:31:11.853Z,26.97
2018-11-21T03:35:15.476Z,31.30
2018-11-21T03:39:20.512Z,24.20
2018-11-21T03:43:24.219Z,27.13
2018-11-21T03:47:27.840Z,29.90
2018-11-21T03:51:31.467Z,26.90
2018-11-21T03:55:35.115Z,28.10
2018-11-21T03:59:38.737Z,32.33
2018-11-21T04:03:42.717Z,31.17
2018-11-21T04:07:46.387Z,30.00
2018-11-21T04:11:50.014Z,27.13
2018-11-21T04:15:53.645Z,33.07
2018-11-21T04:19:57.289Z,33.67
2018-11-21T04:24:00.943Z,30.27
2018-11-21T04:28:04.560Z,33.30
2018-11-21T04:32:08.190Z,32.60
2018-11-21T04:36:12.694Z,36.67
2018-11-21T04:40:16.276Z,32.60
2018-11-21T04:44:19.936Z,35.53
2018-11-21T04:48:23.528Z,31.63
2018-11-21T04:52:27.193Z,30.10
2018-11-21T04:56:30.787Z,31.90
2018-11-21T05:00:34.408Z,36.20
2018-11-21T05:04:38.084Z,33.60
2018-11-21T05:08:41.657Z,29.77
2018-11-21T05:12:45.321Z,29.90
2018-11-21T05:16:48.985Z,31.17
2018-11-21T05:20:52.619Z,27.63
2018-11-21T05:24:56.413Z,33.00
2018-11-21T05:29:00.108Z,32.57
2018-11-21T05:33:03.832Z,29.27
2018-11-21T05:37:07.449Z,28.67
2018-11-21T05:41:11.438Z,23.77
2018-11-21T05:45:15.228Z,23.07
2018-11-21T05:49:18.861Z,20.70
2018-11-21T05:53:23.799Z,21.80
2018-11-21T05:57:27.365Z,24.13
2018-11-21T06:01:31.357Z,23.60
2018-11-21T06:05:34.993Z,24.03
2018-11-21T06:09:38.846Z,18.83
2018-11-21T06:13:42.333Z,22.77
2018-11-21T06:17:48.325Z,17.50
2018-11-21T06:21:49.598Z,21.67
2018-11-21T06:25:53.411Z,21.87
2018-11-21T06:29:57.113Z,26.27
2018-11-21T06:34:00.743Z,21.47
2018-11-21T06:38:04.388Z,19.03
2018-11-21T06:42:08.041Z,24.53
2018-11-21T06:46:11.707Z,21.77
2018-11-21T06:50:15.514Z,22.53
2018-11-21T06:54:19.169Z,23.57
2018-11-21T06:58:22.807Z,21.53
2018-11-21T07:02:26.454Z,19.13
2018-11-21T07:06:30.064Z,22.10
2018-11-21T07:10:33.722Z,18.73
2018-11-21T07:14:37.307Z,21.10
2018-11-21T07:18:41.322Z,20.57
2018-11-21T07:22:44.937Z,25.43
2018-11-21T07:26:50.374Z,24.27
2018-11-21T07:30:53.907Z,23.63
2018-11-21T07:34:58.003Z,25.43
2018-11-21T07:39:02.483Z,24.63
2018-11-21T07:43:06.266Z,29.53
2018-11-21T07:47:09.928Z,25.00
2018-11-21T07:51:13.601Z,24.97
2018-11-21T07:55:17.218Z,24.30
2018-11-21T07:59:20.899Z,22.97
2018-11-21T08:03:25.734Z,24.83
2018-11-21T08:07:40.721Z,20.17
2018-11-21T08:12:21.695Z,24.83
2018-11-21T08:16:59.394Z,25.00
2018-11-21T08:21:21.989Z,24.57
2018-11-21T08:25:50.698Z,26.53
2018-11-21T08:29:54.365Z,25.97
2018-11-21T08:33:58.007Z,23.23
2018-11-21T08:38:01.637Z,21.83
2018-11-21T08:42:05.535Z,26.20
2018-11-21T08:46:10.281Z,24.73
2018-11-21T08:50:13.890Z,21.30
2018-11-21T08:54:17.565Z,19.37
2018-11-21T08:58:21.340Z,21.33
2018-11-21T09:02:25.072Z,20.27
2018-11-21T09:06:28.976Z,20.70
2018-11-21T09:14:36.218Z,21.40
2018-11-21T09:18:39.824Z,17.50
2018-11-21T09:22:43.421Z,17.97
2018-11-21T09:26:47.376Z,20.20
2018-11-21T09:30:51.020Z,13.77
2018-11-21T09:34:54.638Z,20.50
2018-11-21T09:38:58.262Z,17.17
2018-11-21T09:43:01.923Z,18.53
2018-11-21T09:47:05.535Z,22.13
2018-11-21T09:51:09.178Z,17.57
2018-11-21T09:55:13.005Z,20.03
2018-11-21T09:59:16.609Z,22.03
2018-11-21T10:03:22.400Z,17.67
2018-11-21T10:07:26.050Z,20.30
2018-11-21T10:11:30.451Z,19.17
2018-11-21T10:15:34.094Z,19.13
2018-11-21T10:19:37.711Z,17.60
2018-11-21T10:23:41.639Z,19.90
2018-11-21T10:27:45.885Z,16.10
2018-11-21T10:31:49.507Z,15.70
2018-11-21T10:35:53.203Z,16.20
2018-11-21T10:39:56.891Z,17.23
2018-11-21T10:44:00.473Z,19.27
2018-11-21T10:48:04.470Z,18.57
2018-11-21T10:52:08.125Z,16.47
2018-11-21T10:56:11.759Z,17.53
2018-11-21T11:00:34.416Z,19.63
2018-11-21T11:04:59.652Z,17.30
2018-11-21T11:09:24.863Z,17.03
2018-11-21T11:13:46.422Z,19.20
2018-11-21T11:18:07.642Z,15.77
2018-11-21T11:22:28.710Z,17.30
2018-11-21T11:26:49.762Z,17.97
2018-11-21T11:31:27.307Z,19.83
2018-11-21T11:36:05.172Z,20.67
2018-11-21T11:40:31.694Z,18.17
2018-11-21T11:45:03.077Z,16.53
2018-11-21T11:49:24.308Z,15.67
2018-11-21T11:53:45.319Z,16.37
2018-11-21T11:58:19.813Z,17.23
2018-11-21T12:02:34.743Z,20.17
2018-11-21T12:06:56.057Z,17.83
2018-11-21T12:11:17.075Z,17.60
2018-11-21T12:15:31.468Z,17.63
2018-11-21T12:19:56.890Z,19.30
2018-11-21T12:24:18.200Z,17.90
2018-11-21T12:28:39.467Z,15.23
2018-11-21T12:33:20.450Z,15.03
2018-11-21T12:37:41.718Z,18.20
2018-11-21T12:42:06.879Z,16.13
2018-11-21T12:46:41.622Z,15.87
2018-11-21T12:51:22.651Z,14.33
2018-11-21T12:55:43.705Z,17.03
2018-11-21T13:00:21.452Z,17.97
2018-11-21T13:04:46.659Z,19.33
2018-11-21T13:09:08.679Z,17.57
2018-11-21T13:13:30.192Z,18.87
2018-11-21T13:17:51.458Z,14.30
2018-11-21T13:22:20.233Z,15.50
2018-11-21T13:26:42.900Z,16.57
2018-11-21T13:31:23.530Z,17.47
2018-11-21T13:35:55.197Z,19.20
2018-11-21T13:40:20.542Z,16.90
2018-11-21T13:44:52.449Z,16.87
2018-11-21T13:49:13.926Z,18.80
2018-11-21T13:53:42.397Z,18.50
2018-11-21T13:57:46.284Z,17.63
2018-11-21T14:01:50.383Z,21.57
2018-11-21T14:05:54.039Z,22.63
2018-11-21T14:09:57.698Z,18.33
2018-11-21T14:14:01.554Z,18.37
2018-11-21T14:18:04.942Z,23.57
2018-11-21T14:22:08.565Z,26.73
2018-11-21T14:26:12.316Z,24.10
2018-11-21T14:30:17.001Z,24.93
2018-11-21T14:34:20.684Z,25.43
2018-11-21T14:38:24.352Z,20.73
2018-11-21T14:42:27.992Z,26.07
2018-11-21T14:46:31.653Z,25.00
2018-11-21T14:50:39.183Z,24.33
2018-11-21T14:54:39.834Z,24.83
2018-11-21T14:58:43.572Z,23.90
2018-11-21T15:02:47.240Z,28.30
2018-11-21T15:06:50.860Z,25.50
2018-11-21T15:10:54.634Z,27.70
2018-11-21T15:14:58.199Z,30.27
2018-11-21T15:19:01.887Z,29.20
2018-11-21T15:23:06.234Z,36.43
2018-11-21T15:27:10.163Z,48.73
2018-11-21T15:31:13.823Z,45.60
2018-11-21T15:35:18.098Z,47.10
2018-11-21T15:39:21.819Z,43.27
2018-11-21T15:43:31.617Z,48.13
2018-11-21T15:47:35.288Z,46.40
2018-11-21T15:51:39.928Z,48.53
2018-11-21T15:55:43.734Z,47.80
2018-11-21T15:59:47.370Z,44.23
2018-11-21T16:03:51.019Z,51.47
2018-11-21T16:07:54.632Z,42.43
2018-11-21T16:11:58.300Z,42.47
2018-11-21T16:16:02.429Z,39.63
2018-11-21T16:20:07.262Z,31.97
2018-11-21T16:24:11.011Z,28.73
2018-11-21T16:28:15.252Z,33.43
2018-11-21T16:32:18.836Z,29.87
2018-11-21T16:36:27.114Z,28.00
2018-11-21T16:40:27.710Z,33.60
2018-11-21T16:44:31.334Z,33.93
2018-11-21T16:48:34.961Z,28.77
2018-11-21T16:52:38.579Z,35.23
2018-11-21T16:56:42.228Z,34.10
2018-11-21T17:00:45.832Z,37.13
2018-11-21T17:04:49.481Z,33.67
2018-11-21T17:08:53.125Z,35.60
2018-11-21T17:12:56.782Z,37.73
2018-11-21T17:17:00.422Z,42.50
2018-11-21T17:21:04.070Z,48.47
2018-11-21T17:25:10.532Z,46.20
2018-11-21T17:29:14.190Z,45.20
2018-11-21T17:33:18.138Z,45.87
2018-11-21T17:37:21.737Z,52.83
2018-11-21T17:41:25.501Z,46.07
2018-11-21T17:45:29.366Z,48.43
2018-11-21T17:49:33.226Z,51.70
2018-11-21T17:53:46.678Z,43.23
2018-11-21T17:57:50.463Z,43.57
2018-11-21T18:01:54.391Z,42.57
2018-11-21T18:05:58.145Z,46.60
2018-11-21T18:10:01.938Z,53.10
2018-11-21T18:14:06.037Z,43.67
2018-11-21T18:18:09.629Z,43.27
2018-11-21T18:22:13.326Z,48.93
2018-11-21T18:26:18.478Z,48.90
2018-11-21T18:30:23.959Z,44.27
2018-11-21T18:34:27.544Z,44.37
2018-11-21T18:38:33.652Z,47.07
2018-11-21T18:42:37.321Z,52.20
2018-11-21T18:46:40.943Z,51.70
2018-11-21T18:50:44.630Z,48.07
2018-11-21T18:54:48.325Z,46.47
2018-11-21T18:59:19.343Z,46.20
2018-11-21T19:03:22.980Z,50.33
2018-11-21T19:07:26.660Z,51.10
2018-11-21T19:11:30.925Z,45.73
2018-11-21T19:15:34.540Z,54.10
2018-11-21T19:19:38.185Z,46.60
2018-11-21T19:23:41.987Z,46.50
2018-11-21T19:27:45.701Z,48.83
2018-11-21T19:31:49.513Z,54.93
2018-11-21T19:35:53.390Z,49.97
2018-11-21T19:39:57.178Z,49.73
2018-11-21T19:44:00.886Z,51.07
2018-11-21T19:48:04.937Z,45.27
2018-11-21T19:52:08.725Z,47.50
2018-11-21T19:56:12.329Z,44.27
2018-11-21T20:00:19.702Z,45.60
2018-11-21T20:04:23.452Z,49.20
2018-11-21T20:08:27.155Z,48.37
2018-11-21T20:12:30.935Z,49.93
2018-11-21T20:16:34.648Z,52.63
2018-11-21T20:20:38.504Z,47.50
2018-11-21T20:24:42.834Z,53.77
2018-11-21T20:28:46.442Z,45.63
2018-11-21T20:32:50.125Z,43.87
2018-11-21T20:36:53.820Z,40.80
2018-11-21T20:40:57.562Z,46.33
2018-11-21T20:45:01.267Z,51.17
2018-11-21T20:49:07.849Z,39.73
2018-11-21T20:53:08.822Z,55.80
2018-11-21T20:57:12.577Z,49.90
2018-11-21T21:01:16.299Z,52.50
2018-11-21T21:05:21.489Z,49.00
2018-11-21T21:09:25.170Z,43.73
2018-11-21T21:13:28.944Z,44.50
2018-11-21T21:17:32.505Z,45.87
2018-11-21T21:21:36.280Z,44.40
2018-11-21T21:25:39.936Z,45.33
2018-11-21T21:29:46.410Z,44.07
2018-11-21T21:33:50.232Z,47.13
2018-11-21T21:37:53.882Z,46.10
2018-11-21T21:41:57.513Z,50.50
2018-11-21T21:46:02.100Z,46.13
2018-11-21T21:50:07.482Z,50.30
2018-11-21T21:54:11.114Z,46.83
2018-11-21T21:58:14.888Z,54.63
2018-11-21T22:02:18.550Z,50.10
2018-11-21T22:06:22.284Z,52.20
2018-11-21T22:10:26.009Z,45.27
2018-11-21T22:14:29.650Z,46.33
2018-11-21T22:18:33.313Z,48.47
2018-11-21T22:22:36.950Z,44.80
2018-11-21T22:26:40.534Z,51.67
2018-11-21T22:30:44.251Z,45.27
2018-11-21T22:34:47.942Z,45.47
2018-11-21T22:38:51.632Z,46.53
2018-11-21T22:42:55.307Z,45.90
2018-11-21T22:46:59.018Z,49.00
2018-11-21T22:51:02.746Z,44.07
2018-11-21T22:55:07.099Z,50.17
2018-11-21T22:59:11.129Z,51.33
2018-11-21T23:03:15.849Z,53.40
2018-11-21T23:07:19.588Z,48.10
2018-11-21T23:11:23.262Z,52.30
2018-11-21T23:15:26.928Z,45.67
2018-11-21T23:19:30.609Z,50.43
2018-11-21T23:23:34.294Z,49.27
2018-11-21T23:27:38.312Z,54.20
2018-11-21T23:31:42.110Z,52.80
2018-11-21T23:35:45.782Z,49.87
2018-11-21T23:39:49.356Z,48.80
2018-11-21T23:43:53.030Z,53.27
2018-11-21T23:47:56.796Z,50.37
2018-11-21T23:52:00.475Z,63.07
2018-11-21T23:56:04.106Z,46.70
